createdAt,value
2018-09-12T00:00:10.780Z,1005.79
2018-09-12T00:01:20.591Z,1005.77
2018-09-12T00:02:30.731Z,1005.8
2018-09-12T00:03:40.299Z,1005.78
2018-09-12T00:04:49.850Z,1005.78
2018-09-12T00:05:59.747Z,1005.74
2018-09-12T00:07:09.858Z,1005.73
2018-09-12T00:08:19.938Z,1005.77
2018-09-12T00:09:29.787Z,1005.72
2018-09-12T00:10:39.873Z,1005.74
2018-09-12T00:11:49.682Z,1005.74
2018-09-12T00:12:59.768Z,1005.73
2018-09-12T00:14:09.841Z,1005.71
2018-09-12T00:15:19.974Z,1005.66
2018-09-12T00:16:30.054Z,1005.65
2018-09-12T00:17:40.121Z,1005.64
2018-09-12T00:18:50.192Z,1005.63
2018-09-12T00:20:00.424Z,1005.64
2018-09-12T00:21:10.342Z,1005.61
2018-09-12T00:22:20.496Z,1005.62
2018-09-12T00:23:30.579Z,1005.6
2018-09-12T00:24:40.665Z,1005.59
2018-09-12T00:25:50.751Z,1005.61
2018-09-12T00:27:01.386Z,1005.61
2018-09-12T00:28:11.197Z,1005.59
2018-09-12T00:29:21.012Z,1005.59
2018-09-12T00:30:32.794Z,1005.6
2018-09-12T00:31:42.867Z,1005.56
2018-09-12T00:32:53.003Z,1005.56
2018-09-12T00:34:03.249Z,1005.56
2018-09-12T00:35:13.076Z,1005.54
2018-09-12T00:36:23.148Z,1005.53
2018-09-12T00:37:33.241Z,1005.55
2018-09-12T00:38:43.316Z,1005.53
2018-09-12T00:39:53.371Z,1005.54
2018-09-12T00:41:03.450Z,1005.49
2018-09-12T00:42:13.009Z,1005.57
2018-09-12T00:43:23.109Z,1005.54
2018-09-12T00:44:33.314Z,1005.57
2018-09-12T00:45:43.415Z,1005.58
2018-09-12T00:46:53.235Z,1005.57
2018-09-12T00:48:03.296Z,1005.55
2018-09-12T00:49:13.382Z,1005.53
2018-09-12T00:50:23.508Z,1005.54
2018-09-12T00:51:33.614Z,1005.54
2018-09-12T00:52:43.701Z,1005.57
2018-09-12T00:53:53.508Z,1005.56
2018-09-12T00:55:03.694Z,1005.55
2018-09-12T00:56:13.829Z,1005.6
2018-09-12T00:57:23.652Z,1005.61
2018-09-12T00:58:33.746Z,1005.61
2018-09-12T00:59:43.837Z,1005.63
2018-09-12T01:00:53.920Z,1005.62
2018-09-12T01:02:04.055Z,1005.59
2018-09-12T01:03:13.876Z,1005.59
2018-09-12T01:04:23.697Z,1005.6
2018-09-12T01:05:33.262Z,1005.65
2018-09-12T01:06:43.084Z,1005.58
2018-09-12T01:07:53.205Z,1005.62
2018-09-12T01:09:03.215Z,1005.66
2018-09-12T01:10:13.285Z,1005.65
2018-09-12T01:11:23.427Z,1005.69
2018-09-12T01:12:33.527Z,1005.69
2018-09-12T01:13:43.348Z,1005.66
2018-09-12T01:14:53.440Z,1005.68
2018-09-12T01:16:03.536Z,1005.67
2018-09-12T01:17:13.602Z,1005.66
2018-09-12T01:18:23.670Z,1005.65
2018-09-12T01:19:33.799Z,1005.66
2018-09-12T01:20:43.883Z,1005.65
2018-09-12T01:21:53.958Z,1005.69
2018-09-12T01:23:04.049Z,1005.71
2018-09-12T01:24:14.134Z,1005.68
2018-09-12T01:25:24.229Z,1005.7
2018-09-12T01:26:34.080Z,1005.67
2018-09-12T01:27:44.153Z,1005.68
2018-09-12T01:28:54.230Z,1005.67
2018-09-12T01:30:04.064Z,1005.62
2018-09-12T01:31:14.193Z,1005.66
2018-09-12T01:32:24.293Z,1005.68
2018-09-12T01:33:34.101Z,1005.63
2018-09-12T01:34:44.198Z,1005.66
2018-09-12T01:35:54.281Z,1005.66
2018-09-12T01:37:04.458Z,1005.66
2018-09-12T01:38:14.561Z,1005.67
2018-09-12T01:39:24.653Z,1005.66
2018-09-12T01:40:34.728Z,1005.65
2018-09-12T01:41:44.800Z,1005.68
2018-09-12T01:42:54.889Z,1005.67
2018-09-12T01:44:04.710Z,1005.66
2018-09-12T01:45:14.773Z,1005.7
2018-09-12T01:46:24.322Z,1005.68
2018-09-12T01:47:34.398Z,1005.68
2018-09-12T01:48:44.278Z,1005.65
2018-09-12T01:49:54.378Z,1005.64
2018-09-12T01:51:04.469Z,1005.59
2018-09-12T01:52:14.557Z,1005.63
2018-09-12T01:53:24.624Z,1005.6
2018-09-12T01:54:34.728Z,1005.59
2018-09-12T01:55:44.565Z,1005.56
2018-09-12T01:56:54.641Z,1005.57
2018-09-12T01:58:04.717Z,1005.61
2018-09-12T01:59:14.526Z,1005.65
2018-09-12T02:00:24.602Z,1005.58
2018-09-12T02:01:34.414Z,1005.59
2018-09-12T02:02:44.487Z,1005.65
2018-09-12T02:03:54.575Z,1005.66
2018-09-12T02:05:04.644Z,1005.63
2018-09-12T02:06:14.730Z,1005.63
2018-09-12T02:07:24.797Z,1005.61
2018-09-12T02:08:34.614Z,1005.61
2018-09-12T02:09:44.435Z,1005.59
2018-09-12T02:10:54.566Z,1005.57
2018-09-12T02:12:04.640Z,1005.57
2018-09-12T02:13:14.470Z,1005.53
2018-09-12T02:14:24.542Z,1005.56
2018-09-12T02:15:34.345Z,1005.52
2018-09-12T02:16:44.413Z,1005.54
2018-09-12T02:17:54.542Z,1005.53
2018-09-12T02:19:04.634Z,1005.55
2018-09-12T02:20:14.702Z,1005.5
2018-09-12T02:21:24.255Z,1005.5
2018-09-12T02:22:34.061Z,1005.53
2018-09-12T02:23:44.239Z,1005.54
2018-09-12T02:24:54.060Z,1005.53
2018-09-12T02:26:04.151Z,1005.52
2018-09-12T02:27:13.937Z,1005.51
2018-09-12T02:28:24.006Z,1005.52
2018-09-12T02:29:34.172Z,1005.47
2018-09-12T02:30:44.250Z,1005.48
2018-09-12T02:31:54.058Z,1005.5
2018-09-12T02:33:03.887Z,1005.46
2018-09-12T02:34:13.959Z,1005.46
2018-09-12T02:35:24.091Z,1005.48
2018-09-12T02:36:34.223Z,1005.5
2018-09-12T02:37:44.575Z,1005.46
2018-09-12T02:38:54.408Z,1005.48
2018-09-12T02:40:04.257Z,1005.52
2018-09-12T02:41:14.329Z,1005.5
2018-09-12T02:42:24.415Z,1005.49
2018-09-12T02:43:34.495Z,1005.44
2018-09-12T02:44:44.307Z,1005.47
2018-09-12T02:45:54.412Z,1005.47
2018-09-12T02:47:04.474Z,1005.45
2018-09-12T02:48:14.551Z,1005.45
2018-09-12T02:49:24.629Z,1005.48
2018-09-12T02:50:34.440Z,1005.46
2018-09-12T02:51:44.509Z,1005.44
2018-09-12T02:52:54.318Z,1005.45
2018-09-12T02:54:04.124Z,1005.46
2018-09-12T02:55:14.203Z,1005.43
2018-09-12T02:56:23.750Z,1005.43
2018-09-12T02:57:33.813Z,1005.42
2018-09-12T02:58:43.676Z,1005.42
2018-09-12T02:59:53.769Z,1005.37
2018-09-12T03:01:03.852Z,1005.4
2018-09-12T03:02:13.916Z,1005.35
2018-09-12T03:35:08.308Z,1005.45
2018-09-12T03:36:18.621Z,1005.47
2018-09-12T03:37:28.425Z,1005.46
2018-09-12T03:38:38.507Z,1005.45
2018-09-12T03:39:48.592Z,1005.47
2018-09-12T03:40:58.663Z,1005.47
2018-09-12T03:42:08.473Z,1005.41
2018-09-12T03:43:18.279Z,1005.39
2018-09-12T03:44:28.357Z,1005.45
2018-09-12T03:45:38.423Z,1005.45
2018-09-12T03:46:47.965Z,1005.46
2018-09-12T03:47:58.045Z,1005.44
2018-09-12T03:49:08.707Z,1005.48
2018-09-12T03:50:18.764Z,1005.47
2018-09-12T03:51:28.853Z,1005.48
2018-09-12T03:52:38.915Z,1005.47
2018-09-12T03:53:48.996Z,1005.5
2018-09-12T03:54:59.078Z,1005.46
2018-09-12T03:56:09.173Z,1005.5
2018-09-12T03:57:19.254Z,1005.5
2018-09-12T03:58:29.384Z,1005.5
2018-09-12T03:59:39.469Z,1005.49
2018-09-12T04:00:49.545Z,1005.51
2018-09-12T04:01:59.603Z,1005.46
2018-09-12T04:03:09.686Z,1005.53
2018-09-12T04:04:19.771Z,1005.51
2018-09-12T04:05:29.847Z,1005.52
2018-09-12T04:06:39.942Z,1005.54
2018-09-12T04:07:49.772Z,1005.53
2018-09-12T04:08:59.864Z,1005.53
2018-09-12T04:10:09.935Z,1005.51
2018-09-12T04:11:20.007Z,1005.54
2018-09-12T04:12:29.828Z,1005.54
2018-09-12T04:13:39.934Z,1005.59
2018-09-12T04:14:49.995Z,1005.57
2018-09-12T04:16:01.133Z,1005.57
2018-09-12T04:17:10.936Z,1005.6
2018-09-12T04:18:21.029Z,1005.58
2018-09-12T04:19:31.129Z,1005.63
2018-09-12T04:20:41.215Z,1005.6
2018-09-12T04:21:51.317Z,1005.64
2018-09-12T04:23:01.420Z,1005.6
2018-09-12T04:24:11.578Z,1005.63
2018-09-12T04:25:22.197Z,1005.62
2018-09-12T04:26:32.279Z,1005.65
2018-09-12T04:27:42.141Z,1005.64
2018-09-12T04:28:51.973Z,1005.62
2018-09-12T04:30:02.045Z,1005.64
2018-09-12T04:31:11.866Z,1005.63
2018-09-12T04:32:21.967Z,1005.63
2018-09-12T04:33:31.837Z,1005.62
2018-09-12T04:34:41.931Z,1005.62
2018-09-12T04:35:52.001Z,1005.62
2018-09-12T04:37:01.845Z,1005.63
2018-09-12T04:38:11.660Z,1005.62
2018-09-12T04:39:21.965Z,1005.59
2018-09-12T04:40:31.791Z,1005.64
2018-09-12T04:41:41.872Z,1005.66
2018-09-12T04:42:51.975Z,1005.64
2018-09-12T04:44:02.027Z,1005.65
2018-09-12T04:45:12.135Z,1005.69
2018-09-12T04:46:22.202Z,1005.67
2018-09-12T04:47:32.279Z,1005.61
2018-09-12T04:48:42.366Z,1005.66
2018-09-12T04:49:52.450Z,1005.62
2018-09-12T04:51:02.271Z,1005.65
2018-09-12T04:52:12.353Z,1005.66
2018-09-12T04:53:22.442Z,1005.66
2018-09-12T04:54:32.520Z,1005.64
2018-09-12T04:55:42.351Z,1005.67
2018-09-12T04:56:52.444Z,1005.7
2018-09-12T04:58:02.547Z,1005.69
2018-09-12T04:59:12.630Z,1005.69
2018-09-12T05:00:22.465Z,1005.68
2018-09-12T05:01:32.736Z,1005.69
2018-09-12T05:02:42.822Z,1005.67
2018-09-12T05:03:52.909Z,1005.71
2018-09-12T05:05:03.903Z,1005.71
2018-09-12T05:06:13.970Z,1005.7
2018-09-12T05:07:23.829Z,1005.67
2018-09-12T05:08:33.905Z,1005.66
2018-09-12T05:09:43.979Z,1005.63
2018-09-12T05:10:53.804Z,1005.64
2018-09-12T05:12:03.887Z,1005.64
2018-09-12T05:13:13.702Z,1005.62
2018-09-12T05:14:23.576Z,1005.61
2018-09-12T05:15:33.649Z,1005.64
2018-09-12T05:16:43.823Z,1005.65
2018-09-12T05:17:53.514Z,1005.66
2018-09-12T05:19:03.327Z,1005.66
2018-09-12T05:20:13.446Z,1005.71
2018-09-12T05:21:23.537Z,1005.64
2018-09-12T05:22:33.611Z,1005.64
2018-09-12T05:23:43.669Z,1005.68
2018-09-12T05:24:53.739Z,1005.68
2018-09-12T05:26:03.566Z,1005.66
2018-09-12T05:27:13.639Z,1005.64
2018-09-12T05:28:23.466Z,1005.65
2018-09-12T05:29:33.452Z,1005.64
2018-09-12T05:30:43.542Z,1005.65
2018-09-12T05:31:53.657Z,1005.64
2018-09-12T05:33:03.968Z,1005.64
2018-09-12T05:34:14.034Z,1005.66
2018-09-12T05:35:24.140Z,1005.65
2018-09-12T05:36:34.226Z,1005.62
2018-09-12T05:37:44.419Z,1005.61
2018-09-12T05:38:54.497Z,1005.58
2018-09-12T05:40:04.299Z,1005.56
2018-09-12T05:41:14.113Z,1005.55
2018-09-12T05:42:24.195Z,1005.55
2018-09-12T05:43:34.014Z,1005.52
2018-09-12T05:44:44.078Z,1005.5
2018-09-12T05:45:54.152Z,1005.48
2018-09-12T05:47:04.206Z,1005.52
2018-09-12T05:48:14.274Z,1005.54
2018-09-12T05:49:23.565Z,1005.52
2018-09-12T05:50:33.476Z,1005.46
2018-09-12T05:51:43.370Z,1005.48
2018-09-12T05:52:53.433Z,1005.45
2018-09-12T05:54:03.543Z,1005.44
2018-09-12T05:55:13.626Z,1005.48
2018-09-12T05:56:23.967Z,1005.42
2018-09-12T05:57:34.049Z,1005.43
2018-09-12T05:58:44.142Z,1005.42
2018-09-12T05:59:54.230Z,1005.41
2018-09-12T06:01:04.319Z,1005.36
2018-09-12T06:02:14.158Z,1005.36
2018-09-12T06:03:23.974Z,1005.37
2018-09-12T06:04:34.064Z,1005.34
2018-09-12T06:05:44.146Z,1005.33
2018-09-12T06:06:54.126Z,1005.34
2018-09-12T06:08:05.323Z,1005.32
2018-09-12T06:09:15.144Z,1005.35
2018-09-12T06:10:25.217Z,1005.34
2018-09-12T06:11:35.041Z,1005.34
2018-09-12T06:12:45.107Z,1005.39
2018-09-12T06:13:54.949Z,1005.38
2018-09-12T06:15:05.317Z,1005.42
2018-09-12T06:16:15.476Z,1005.4
2018-09-12T06:17:25.572Z,1005.43
2018-09-12T06:18:35.375Z,1005.4
2018-09-12T06:19:45.444Z,1005.42
2018-09-12T06:20:55.529Z,1005.41
2018-09-12T06:22:05.669Z,1005.41
2018-09-12T06:23:15.747Z,1005.4
2018-09-12T06:24:25.819Z,1005.41
2018-09-12T06:25:35.636Z,1005.41
2018-09-12T06:26:45.733Z,1005.39
2018-09-12T06:27:55.801Z,1005.42
2018-09-12T06:29:05.882Z,1005.39
2018-09-12T06:30:15.945Z,1005.4
2018-09-12T06:31:26.010Z,1005.36
2018-09-12T06:32:35.571Z,1005.39
2018-09-12T06:33:45.384Z,1005.38
2018-09-12T06:34:55.189Z,1005.39
2018-09-12T06:36:05.271Z,1005.41
2018-09-12T06:37:15.103Z,1005.39
2018-09-12T06:38:25.195Z,1005.41
2018-09-12T06:39:35.475Z,1005.39
2018-09-12T06:40:45.561Z,1005.41
2018-09-12T06:41:55.666Z,1005.4
2018-09-12T06:43:06.432Z,1005.41
2018-09-12T06:44:16.545Z,1005.4
2018-09-12T06:45:26.624Z,1005.38
2018-09-12T06:46:36.700Z,1005.36
2018-09-12T06:47:46.508Z,1005.38
2018-09-12T06:48:56.064Z,1005.37
2018-09-12T06:50:06.138Z,1005.41
2018-09-12T06:51:16.214Z,1005.35
2018-09-12T06:52:26.291Z,1005.34
2018-09-12T06:53:36.116Z,1005.35
2018-09-12T06:54:46.104Z,1005.33
2018-09-12T06:55:56.565Z,1005.36
2018-09-12T06:57:06.648Z,1005.38
2018-09-12T06:58:16.724Z,1005.38
2018-09-12T06:59:26.532Z,1005.35
2018-09-12T07:00:36.846Z,1005.39
2018-09-12T07:01:47.409Z,1005.35
2018-09-12T07:02:57.489Z,1005.37
2018-09-12T07:04:07.326Z,1005.36
2018-09-12T07:05:17.364Z,1005.37
2018-09-12T07:06:27.496Z,1005.35
2018-09-12T07:07:37.867Z,1005.36
2018-09-12T07:08:48.408Z,1005.34
2018-09-12T07:09:58.221Z,1005.33
2018-09-12T07:11:07.789Z,1005.35
2018-09-12T07:12:17.904Z,1005.35
2018-09-12T07:13:27.966Z,1005.36
2018-09-12T07:14:37.534Z,1005.35
2018-09-12T07:15:47.624Z,1005.35
2018-09-12T07:16:57.428Z,1005.37
2018-09-12T07:18:07.249Z,1005.35
2018-09-12T07:19:17.055Z,1005.39
2018-09-12T07:20:27.127Z,1005.38
2018-09-12T07:21:37.228Z,1005.39
2018-09-12T07:22:47.295Z,1005.42
2018-09-12T07:23:57.110Z,1005.44
2018-09-12T07:25:07.223Z,1005.47
2018-09-12T07:26:17.301Z,1005.44
2018-09-12T07:27:27.109Z,1005.42
2018-09-12T07:28:37.195Z,1005.36
2018-09-12T07:29:47.345Z,1005.39
2018-09-12T07:30:57.420Z,1005.38
2018-09-12T07:32:07.236Z,1005.36
2018-09-12T07:33:17.051Z,1005.39
2018-09-12T07:34:27.125Z,1005.35
2018-09-12T07:35:37.242Z,1005.36
2018-09-12T07:36:47.320Z,1005.42
2018-09-12T07:37:57.396Z,1005.43
2018-09-12T07:39:07.464Z,1005.45
2018-09-12T07:40:17.299Z,1005.42
2018-09-12T07:41:27.182Z,1005.45
2018-09-12T07:42:37.531Z,1005.45
2018-09-12T07:43:47.370Z,1005.49
2018-09-12T07:44:57.461Z,1005.45
2018-09-12T07:46:07.554Z,1005.46
2018-09-12T07:47:17.631Z,1005.42
2018-09-12T07:48:27.462Z,1005.4
2018-09-12T07:49:37.540Z,1005.41
2018-09-12T07:50:47.622Z,1005.44
2018-09-12T07:51:57.461Z,1005.46
2018-09-12T07:53:07.597Z,1005.41
2018-09-12T07:54:17.412Z,1005.38
2018-09-12T07:55:27.488Z,1005.39
2018-09-12T07:56:37.100Z,1005.4
2018-09-12T07:57:47.451Z,1005.44
2018-09-12T07:58:57.338Z,1005.44
2018-09-12T08:00:07.466Z,1005.45
2018-09-12T08:01:18.339Z,1005.46
2018-09-12T08:02:28.440Z,1005.47
2018-09-12T08:03:38.280Z,1005.45
2018-09-12T08:04:48.357Z,1005.43
2018-09-12T08:05:58.675Z,1005.43
2018-09-12T08:07:08.747Z,1005.44
2018-09-12T08:08:18.843Z,1005.45
2018-09-12T08:09:28.939Z,1005.49
2018-09-12T08:10:39.054Z,1005.53
2018-09-12T08:11:48.880Z,1005.51
2018-09-12T08:12:58.711Z,1005.53
2018-09-12T08:14:08.541Z,1005.54
2018-09-12T08:15:18.821Z,1005.51
2018-09-12T08:16:28.951Z,1005.51
2018-09-12T08:17:39.023Z,1005.55
2018-09-12T08:18:48.892Z,1005.55
2018-09-12T08:19:59.111Z,1005.53
2018-09-12T08:21:09.193Z,1005.52
2018-09-12T08:22:19.279Z,1005.51
2018-09-12T08:23:29.362Z,1005.54
2018-09-12T08:24:39.452Z,1005.53
2018-09-12T08:25:49.569Z,1005.51
2018-09-12T08:26:59.649Z,1005.53
2018-09-12T08:28:09.737Z,1005.48
2018-09-12T08:29:19.303Z,1005.52
2018-09-12T08:30:29.379Z,1005.52
2018-09-12T08:31:39.465Z,1005.51
2018-09-12T08:32:49.551Z,1005.54
2018-09-12T08:33:59.702Z,1005.53
2018-09-12T08:35:09.790Z,1005.53
2018-09-12T08:36:19.893Z,1005.5
2018-09-12T08:37:30.347Z,1005.47
2018-09-12T08:38:40.449Z,1005.47
2018-09-12T08:39:50.265Z,1005.42
2018-09-12T08:41:00.085Z,1005.42
2018-09-12T08:42:10.249Z,1005.44
2018-09-12T08:43:21.059Z,1005.42
2018-09-12T08:44:30.881Z,1005.41
2018-09-12T08:45:41.004Z,1005.38
2018-09-12T08:46:51.099Z,1005.35
2018-09-12T08:48:01.278Z,1005.34
2018-09-12T08:49:11.368Z,1005.31
2018-09-12T08:50:21.439Z,1005.3
2018-09-12T08:51:31.243Z,1005.28
2018-09-12T08:52:41.328Z,1005.27
2018-09-12T08:53:51.487Z,1005.28
2018-09-12T08:55:01.582Z,1005.3
2018-09-12T08:56:11.670Z,1005.31
2018-09-12T08:57:21.485Z,1005.29
2018-09-12T08:58:31.323Z,1005.3
2018-09-12T08:59:41.410Z,1005.29
2018-09-12T09:00:51.507Z,1005.33
2018-09-12T09:02:01.594Z,1005.33
2018-09-12T09:03:11.681Z,1005.27
2018-09-12T09:04:21.762Z,1005.27
2018-09-12T09:05:31.584Z,1005.29
2018-09-12T09:06:41.658Z,1005.28
2018-09-12T09:07:51.733Z,1005.29
2018-09-12T09:09:01.888Z,1005.24
2018-09-12T09:10:11.733Z,1005.28
2018-09-12T09:11:21.619Z,1005.23
2018-09-12T09:12:31.729Z,1005.23
2018-09-12T09:13:41.545Z,1005.24
2018-09-12T09:14:51.712Z,1005.23
2018-09-12T09:16:01.814Z,1005.22
2018-09-12T09:17:11.941Z,1005.21
2018-09-12T09:27:51.212Z,1005.18
2018-09-12T09:29:01.274Z,1005.16
2018-09-12T09:30:11.401Z,1005.16
2018-09-12T09:31:21.512Z,1005.17
2018-09-12T09:32:31.621Z,1005.14
2018-09-12T09:33:41.776Z,1005.14
2018-09-12T09:34:51.674Z,1005.1
2018-09-12T09:36:01.943Z,1005.12
2018-09-12T09:37:12.018Z,1005.1
2018-09-12T09:38:21.938Z,1005.09
2018-09-12T09:39:32.034Z,1005.08
2018-09-12T09:40:42.141Z,1005.06
2018-09-12T09:41:52.255Z,1005.02
2018-09-12T09:43:02.323Z,1005.03
2018-09-12T09:44:12.414Z,1005.02
2018-09-12T09:45:22.514Z,1005
2018-09-12T09:46:32.756Z,1005.03
2018-09-12T09:47:42.840Z,1005.03
2018-09-12T09:48:53.235Z,1004.98
2018-09-12T09:50:03.729Z,1004.95
2018-09-12T09:51:13.828Z,1004.94
2018-09-12T09:52:23.986Z,1004.93
2018-09-12T09:53:33.804Z,1004.9
2018-09-12T09:54:43.712Z,1004.83
2018-09-12T09:55:54.180Z,1004.89
2018-09-12T09:57:04.276Z,1004.89
2018-09-12T09:58:14.410Z,1004.9
2018-09-12T09:59:24.492Z,1004.89
2018-09-12T10:00:34.582Z,1004.84
2018-09-12T10:01:44.448Z,1004.84
2018-09-12T10:02:54.273Z,1004.77
2018-09-12T10:04:04.354Z,1004.81
2018-09-12T10:05:14.461Z,1004.79
2018-09-12T10:06:24.558Z,1004.75
2018-09-12T10:07:34.658Z,1004.77
2018-09-12T10:08:44.776Z,1004.74
2018-09-12T10:09:54.884Z,1004.73
2018-09-12T10:11:04.973Z,1004.75
2018-09-12T10:12:15.062Z,1004.74
2018-09-12T10:13:25.163Z,1004.71
2018-09-12T10:14:34.991Z,1004.7
2018-09-12T10:15:45.090Z,1004.75
2018-09-12T10:16:55.183Z,1004.73
2018-09-12T10:18:05.005Z,1004.71
2018-09-12T10:19:15.084Z,1004.67
2018-09-12T10:20:25.288Z,1004.69
2018-09-12T10:21:35.430Z,1004.67
2018-09-12T10:22:45.256Z,1004.68
2018-09-12T10:23:55.085Z,1004.66
2018-09-12T10:25:05.171Z,1004.72
2018-09-12T10:26:15.268Z,1004.7
2018-09-12T10:27:25.350Z,1004.72
2018-09-12T10:28:35.472Z,1004.72
2018-09-12T10:29:45.604Z,1004.68
2018-09-12T10:30:55.469Z,1004.67
2018-09-12T10:32:05.697Z,1004.64
2018-09-12T10:33:15.787Z,1004.63
2018-09-12T10:34:25.678Z,1004.61
2018-09-12T10:35:35.777Z,1004.61
2018-09-12T10:36:45.859Z,1004.57
2018-09-12T10:37:56.205Z,1004.55
2018-09-12T10:39:06.306Z,1004.55
2018-09-12T10:40:16.122Z,1004.5
2018-09-12T10:41:25.950Z,1004.55
2018-09-12T10:42:36.080Z,1004.49
2018-09-12T10:43:46.172Z,1004.5
2018-09-12T10:44:55.991Z,1004.5
2018-09-12T10:46:06.070Z,1004.47
2018-09-12T10:47:16.147Z,1004.42
2018-09-12T10:48:26.269Z,1004.42
2018-09-12T10:49:36.353Z,1004.42
2018-09-12T10:50:46.392Z,1004.4
2018-09-12T10:51:56.519Z,1004.41
2018-09-12T10:53:06.612Z,1004.35
2018-09-12T10:54:16.486Z,1004.3
2018-09-12T10:55:26.590Z,1004.31
2018-09-12T10:56:36.680Z,1004.29
2018-09-12T10:57:46.515Z,1004.24
2018-09-12T10:58:56.359Z,1004.24
2018-09-12T11:00:06.903Z,1004.25
2018-09-12T11:01:17.219Z,1004.22
2018-09-12T11:02:27.198Z,1004.28
2018-09-12T11:03:37.322Z,1004.2
2018-09-12T11:04:47.407Z,1004.23
2018-09-12T11:05:57.329Z,1004.23
2018-09-12T11:07:07.417Z,1004.23
2018-09-12T11:08:17.224Z,1004.22
2018-09-12T11:09:27.302Z,1004.21
2018-09-12T11:10:37.440Z,1004.21
2018-09-12T11:11:47.346Z,1004.24
2018-09-12T11:12:57.453Z,1004.17
2018-09-12T11:14:07.564Z,1004.17
2018-09-12T11:15:17.657Z,1004.15
2018-09-12T11:16:27.504Z,1004.13
2018-09-12T11:17:37.363Z,1004.11
2018-09-12T11:18:47.211Z,1004.13
2018-09-12T11:19:57.039Z,1004.11
2018-09-12T11:21:07.141Z,1004.1
2018-09-12T11:22:16.985Z,1004.08
2018-09-12T11:23:27.142Z,1004.07
2018-09-12T11:24:37.239Z,1004.04
2018-09-12T11:25:47.349Z,1004.05
2018-09-12T11:26:57.439Z,1004.07
2018-09-12T11:28:07.577Z,1004.04
2018-09-12T11:29:17.768Z,1004.02
2018-09-12T11:30:27.877Z,1003.98
2018-09-12T11:31:37.966Z,1003.97
2018-09-12T11:32:48.057Z,1003.94
2018-09-12T11:33:57.886Z,1003.88
2018-09-12T11:35:08.150Z,1003.87
2018-09-12T11:36:18.271Z,1003.83
2018-09-12T11:37:28.359Z,1003.81
2018-09-12T11:38:38.706Z,1003.81
2018-09-12T11:39:48.830Z,1003.8
2018-09-12T11:40:59.145Z,1003.77
2018-09-12T11:42:08.989Z,1003.76
2018-09-12T11:43:19.072Z,1003.72
2018-09-12T11:44:29.162Z,1003.75
2018-09-12T11:45:39.253Z,1003.7
2018-09-12T11:46:49.387Z,1003.68
2018-09-12T11:47:59.497Z,1003.72
2018-09-12T11:49:09.676Z,1003.67
2018-09-12T11:50:20.107Z,1003.64
2018-09-12T11:51:30.263Z,1003.66
2018-09-12T11:52:40.416Z,1003.65
2018-09-12T11:53:50.607Z,1003.62
2018-09-12T11:55:01.359Z,1003.62
2018-09-12T11:56:11.192Z,1003.6
2018-09-12T11:57:21.444Z,1003.59
2018-09-12T11:58:31.719Z,1003.56
2018-09-12T11:59:41.628Z,1003.53
2018-09-12T12:00:51.851Z,1003.52
2018-09-12T12:02:01.827Z,1003.48
2018-09-12T12:03:12.765Z,1003.44
2018-09-12T12:04:22.495Z,1003.48
2018-09-12T12:05:32.673Z,1003.5
2018-09-12T12:06:42.827Z,1003.47
2018-09-12T12:07:53.249Z,1003.49
2018-09-12T12:09:03.461Z,1003.48
2018-09-12T12:10:13.663Z,1003.5
2018-09-12T12:11:23.763Z,1003.45
2018-09-12T12:12:33.855Z,1003.48
2018-09-12T12:13:43.947Z,1003.45
2018-09-12T12:14:53.754Z,1003.43
2018-09-12T12:16:03.919Z,1003.41
2018-09-12T12:17:14.007Z,1003.43
2018-09-12T12:18:24.090Z,1003.43
2018-09-12T12:19:33.955Z,1003.4
2018-09-12T12:20:43.783Z,1003.41
2018-09-12T12:21:53.912Z,1003.38
2018-09-12T12:23:04.061Z,1003.38
2018-09-12T12:24:14.464Z,1003.37
2018-09-12T12:25:24.581Z,1003.34
2018-09-12T12:26:34.400Z,1003.38
2018-09-12T12:27:44.474Z,1003.33
2018-09-12T12:28:54.562Z,1003.34
2018-09-12T12:30:04.665Z,1003.3
2018-09-12T12:31:14.518Z,1003.36
2018-09-12T12:32:24.594Z,1003.29
2018-09-12T12:33:34.739Z,1003.3
2018-09-12T12:34:44.597Z,1003.3
2018-09-12T12:35:54.680Z,1003.26
2018-09-12T12:37:04.768Z,1003.25
2018-09-12T12:38:14.355Z,1003.24
2018-09-12T12:39:24.480Z,1003.22
2018-09-12T12:40:34.574Z,1003.21
2018-09-12T12:41:44.685Z,1003.18
2018-09-12T12:42:54.818Z,1003.13
2018-09-12T12:44:04.913Z,1003.1
2018-09-12T12:45:14.756Z,1003.07
2018-09-12T12:46:24.850Z,1003.04
2018-09-12T12:47:34.673Z,1003.02
2018-09-12T12:48:44.245Z,1002.99
2018-09-12T12:49:54.071Z,1002.94
2018-09-12T12:51:03.938Z,1002.95
2018-09-12T12:52:14.122Z,1002.92
2018-09-12T12:53:24.205Z,1002.93
2018-09-12T12:54:34.287Z,1002.88
2018-09-12T12:55:44.375Z,1002.84
2018-09-12T12:56:54.198Z,1002.82
2018-09-12T12:58:04.309Z,1002.77
2018-09-12T12:59:14.407Z,1002.75
2018-09-12T13:00:24.492Z,1002.75
2018-09-12T13:01:34.338Z,1002.73
2018-09-12T13:02:44.217Z,1002.71
2018-09-12T13:03:54.014Z,1002.71
2018-09-12T13:05:03.815Z,1002.67
2018-09-12T13:06:13.667Z,1002.7
2018-09-12T13:07:23.743Z,1002.64
2018-09-12T13:08:33.944Z,1002.61
2018-09-12T13:09:44.044Z,1002.64
2018-09-12T13:10:54.145Z,1002.58
2018-09-12T13:12:04.234Z,1002.53
2018-09-12T13:13:14.331Z,1002.56
2018-09-12T13:14:24.480Z,1002.49
2018-09-12T13:15:34.859Z,1002.48
2018-09-12T13:16:44.966Z,1002.48
2018-09-12T13:17:54.775Z,1002.44
2018-09-12T13:19:04.861Z,1002.47
2018-09-12T13:20:14.970Z,1002.46
2018-09-12T13:21:25.112Z,1002.44
2018-09-12T13:22:35.603Z,1002.43
2018-09-12T13:23:45.742Z,1002.45
2018-09-12T13:24:55.849Z,1002.44
2018-09-12T13:26:06.038Z,1002.42
2018-09-12T13:27:16.155Z,1002.45
2018-09-12T13:28:26.667Z,1002.42
2018-09-12T13:29:36.771Z,1002.43
2018-09-12T13:30:46.881Z,1002.39
2018-09-12T13:31:57.024Z,1002.43
2018-09-12T13:33:07.171Z,1002.41
2018-09-12T13:34:17.062Z,1002.38
2018-09-12T13:35:26.734Z,1002.39
2018-09-12T13:36:36.313Z,1002.36
2018-09-12T13:37:46.177Z,1002.37
2018-09-12T13:38:56.034Z,1002.33
2018-09-12T13:40:06.173Z,1002.34
2018-09-12T13:41:16.266Z,1002.33
2018-09-12T13:42:26.383Z,1002.28
2018-09-12T13:43:36.524Z,1002.33
2018-09-12T13:44:46.353Z,1002.31
2018-09-12T13:45:56.449Z,1002.29
2018-09-12T13:47:06.550Z,1002.3
2018-09-12T13:48:16.684Z,1002.32
2018-09-12T13:49:26.610Z,1002.28
2018-09-12T13:50:36.712Z,1002.3
2018-09-12T13:51:46.815Z,1002.26
2018-09-12T13:52:56.904Z,1002.28
2018-09-12T13:54:06.501Z,1002.31
2018-09-12T13:55:16.636Z,1002.29
2018-09-12T13:56:26.765Z,1002.3
2018-09-12T13:57:37.222Z,1002.27
2018-09-12T13:58:47.343Z,1002.23
2018-09-12T13:59:57.440Z,1002.23
2018-09-12T14:01:07.582Z,1002.2
2018-09-12T14:02:17.690Z,1002.19
2018-09-12T14:03:27.800Z,1002.19
2018-09-12T14:04:37.896Z,1002.13
2018-09-12T14:05:47.998Z,1002.11
2018-09-12T14:06:58.144Z,1002.13
2018-09-12T14:08:08.234Z,1002.07
2018-09-12T14:09:18.338Z,1002.02
2018-09-12T14:10:28.433Z,1002.05
2018-09-12T14:11:38.539Z,1002.02
2018-09-12T14:12:48.684Z,1001.99
2018-09-12T14:13:58.536Z,1001.98
2018-09-12T14:15:08.621Z,1001.94
2018-09-12T14:16:18.701Z,1001.96
2018-09-12T14:17:28.786Z,1001.91
2018-09-12T14:18:38.926Z,1001.89
2018-09-12T14:19:49.025Z,1001.87
2018-09-12T14:20:58.845Z,1001.89
2018-09-12T14:22:08.414Z,1001.85
2018-09-12T14:23:18.255Z,1001.88
2018-09-12T14:24:28.186Z,1001.82
2018-09-12T14:25:38.015Z,1001.87
2018-09-12T14:26:48.145Z,1001.82
2018-09-12T14:27:58.239Z,1001.81
2018-09-12T14:29:08.314Z,1001.83
2018-09-12T14:30:18.211Z,1001.8
2018-09-12T14:31:28.027Z,1001.75
2018-09-12T14:32:38.135Z,1001.75
2018-09-12T14:33:48.217Z,1001.71
2018-09-12T14:34:58.304Z,1001.68
2018-09-12T14:36:08.394Z,1001.68
2018-09-12T14:37:18.492Z,1001.69
2018-09-12T14:38:28.576Z,1001.72
2018-09-12T14:39:38.397Z,1001.7
2018-09-12T14:40:48.497Z,1001.71
2018-09-12T14:41:58.438Z,1001.67
2018-09-12T14:43:08.973Z,1001.63
2018-09-12T14:44:18.805Z,1001.6
2018-09-12T14:45:28.646Z,1001.58
2018-09-12T14:46:38.734Z,1001.62
2018-09-12T14:47:48.596Z,1001.59
2018-09-12T14:48:58.679Z,1001.59
2018-09-12T14:50:08.770Z,1001.6